Time;durP1;ratioP1;P1;durP2;ratioP2;P2;SDS_P1;SDS_P2;PMS_P1;PMS_P2;Temp;Humidity;BMP_temperature;BMP_pressure;BME280_temperature;BME280_humidity;BME280_pressure;Samples;Min_cycle;Max_cycle;Signal;HPM_P1;HPM_P2
2023/03/05 00:01:25;;;;;;;5.67;1.33;;;3.70;99.90;;;;;;5077471;28;20499;-68
2023/03/05 00:03:55;;;;;;;7.00;1.80;;;3.80;99.90;;;;;;5051417;28;20509;-67
2023/03/05 00:06:27;;;;;;;3.60;1.53;;;3.80;99.90;;;;;;5062305;27;20599;-67
2023/03/05 00:08:57;;;;;;;4.37;1.30;;;3.70;99.90;;;;;;5053111;27;20480;-67
2023/03/05 00:11:28;;;;;;;4.20;2.20;;;3.70;99.90;;;;;;5060583;28;20549;-67
2023/03/05 00:13:57;;;;;;;6.17;1.77;;;3.70;99.90;;;;;;5055994;28;20997;-67
2023/03/05 00:16:26;;;;;;;3.00;1.60;;;3.70;99.90;;;;;;5074382;28;20472;-67
2023/03/05 00:18:55;;;;;;;5.17;1.60;;;3.70;99.90;;;;;;5060232;28;20471;-67
2023/03/05 00:21:25;;;;;;;2.73;1.10;;;3.70;99.90;;;;;;5060775;28;20508;-68
2023/03/05 00:23:55;;;;;;;4.10;1.23;;;3.80;99.90;;;;;;5079698;28;20467;-67
2023/03/05 00:26:25;;;;;;;3.90;1.20;;;3.80;99.90;;;;;;5072370;28;20481;-67
2023/03/05 00:28:55;;;;;;;3.93;1.20;;;3.80;99.90;;;;;;5062852;28;20517;-67
2023/03/05 00:31:25;;;;;;;4.63;1.13;;;3.80;99.90;;;;;;5070957;28;20487;-66
2023/03/05 00:33:55;;;;;;;2.10;1.10;;;3.80;99.90;;;;;;5067412;28;20520;-67
2023/03/05 00:36:23;;;;;;;6.13;1.60;;;3.80;99.90;;;;;;5057075;28;20509;-66
2023/03/05 00:38:51;;;;;;;3.07;1.40;;;3.80;99.90;;;;;;5054374;28;20840;-66
2023/03/05 00:41:21;;;;;;;5.00;1.70;;;3.80;99.90;;;;;;5057784;28;20495;-67
2023/03/05 00:43:49;;;;;;;4.90;1.50;;;3.80;99.90;;;;;;5081587;28;20471;-68
2023/03/05 00:46:17;;;;;;;8.27;1.90;;;3.80;99.90;;;;;;5077636;28;22154;-67
2023/03/05 00:48:45;;;;;;;3.93;1.87;;;3.70;99.90;;;;;;5079399;28;20990;-66
2023/03/05 00:51:13;;;;;;;5.33;1.63;;;3.60;99.90;;;;;;5081303;28;20492;-67
2023/03/05 00:53:41;;;;;;;2.03;1.37;;;3.50;99.90;;;;;;5080341;28;21924;-67
2023/03/05 00:56:09;;;;;;;4.47;1.57;;;3.50;99.90;;;;;;5085641;28;21098;-66
2023/03/05 00:58:39;;;;;;;6.40;1.63;;;3.50;99.90;;;;;;5070798;28;20491;-66
2023/03/05 01:01:07;;;;;;;3.93;1.33;;;3.40;99.90;;;;;;5070598;28;20491;-67
2023/03/05 01:03:36;;;;;;;2.47;1.53;;;3.40;99.90;;;;;;5082125;28;20467;-67
2023/03/05 01:06:06;;;;;;;2.30;1.13;;;3.30;99.90;;;;;;5074242;28;20468;-67
2023/03/05 01:08:35;;;;;;;5.37;1.50;;;3.30;99.90;;;;;;5076680;28;20855;-66
2023/03/05 01:11:03;;;;;;;3.93;1.53;;;3.30;99.90;;;;;;5077785;28;20498;-66
2023/03/05 01:13:32;;;;;;;5.80;1.70;;;3.40;99.90;;;;;;5084448;28;20470;-66
2023/03/05 01:16:01;;;;;;;3.17;1.43;;;3.40;99.90;;;;;;5087309;28;20486;-66
2023/03/05 01:18:29;;;;;;;4.50;1.40;;;3.40;99.90;;;;;;5074457;27;21085;-67
2023/03/05 01:20:57;;;;;;;4.50;1.70;;;3.40;99.90;;;;;;5068577;27;23454;-67
2023/03/05 01:23:26;;;;;;;2.43;1.30;;;3.30;99.90;;;;;;5076659;28;20490;-67
2023/03/05 01:25:54;;;;;;;5.40;1.50;;;3.30;99.90;;;;;;5071900;27;20459;-67
2023/03/05 01:28:22;;;;;;;3.23;1.23;;;3.30;99.90;;;;;;5070879;27;20510;-67
2023/03/05 01:30:51;;;;;;;6.67;2.80;;;3.30;99.90;;;;;;5060914;27;20491;-66
2023/03/05 01:33:20;;;;;;;6.07;2.00;;;3.30;99.90;;;;;;5065910;28;20472;-66
2023/03/05 01:35:48;;;;;;;2.80;1.37;;;3.20;99.90;;;;;;5083003;27;20467;-67
2023/03/05 01:38:17;;;;;;;5.67;1.50;;;3.30;99.90;;;;;;5071622;27;20481;-67
2023/03/05 01:40:45;;;;;;;9.23;2.27;;;3.20;99.90;;;;;;5058057;28;20939;-66
2023/03/05 01:43:26;;;;;;;3.90;1.73;;;3.20;99.90;;;;;;5067482;28;20636;-66
2023/03/05 01:46:23;;;;;;;2.40;1.50;;;3.20;99.90;;;;;;5057276;28;20474;-66
2023/03/05 01:48:56;;;;;;;3.97;1.70;;;3.20;99.90;;;;;;5067820;28;20480;-66
2023/03/05 01:51:27;;;;;;;5.97;1.93;;;3.20;99.90;;;;;;5065875;27;20491;-66
2023/03/05 01:53:57;;;;;;;2.73;1.83;;;3.20;99.90;;;;;;5065309;28;20475;-66
2023/03/05 01:56:27;;;;;;;3.00;1.83;;;3.20;99.90;;;;;;5081215;27;20464;-65
2023/03/05 01:59:02;;;;;;;4.73;2.10;;;3.20;99.90;;;;;;5082312;27;20463;-66
2023/03/05 02:01:38;;;;;;;4.87;2.20;;;3.20;99.90;;;;;;5085102;28;20499;-67
2023/03/05 02:04:09;;;;;;;5.83;2.47;;;3.20;99.90;;;;;;5081705;28;20526;-66
2023/03/05 02:06:39;;;;;;;3.90;2.43;;;3.10;99.90;;;;;;5085034;28;20488;-66
2023/03/05 02:09:07;;;;;;;4.13;2.07;;;3.10;99.90;;;;;;5084959;28;20471;-65
2023/03/05 02:11:35;;;;;;;3.20;1.80;;;3.10;99.90;;;;;;5071995;27;20484;-66
2023/03/05 02:14:04;;;;;;;4.43;2.97;;;3.10;99.90;;;;;;5087738;28;21109;-66
2023/03/05 02:16:37;;;;;;;4.90;2.10;;;3.10;99.90;;;;;;5086041;28;22411;-66
2023/03/05 02:19:10;;;;;;;4.20;2.17;;;3.10;99.90;;;;;;5085540;28;20478;-66
2023/03/05 02:21:42;;;;;;;7.83;2.40;;;3.00;99.90;;;;;;5082424;28;21022;-66
2023/03/05 02:24:13;;;;;;;4.87;2.30;;;3.00;99.90;;;;;;5081960;28;20468;-66
2023/03/05 02:26:43;;;;;;;3.83;2.00;;;2.90;99.90;;;;;;5080974;28;20480;-66
2023/03/05 02:29:15;;;;;;;4.00;1.77;;;2.90;99.90;;;;;;5081209;28;20591;-67
2023/03/05 02:31:43;;;;;;;4.27;1.80;;;2.90;99.90;;;;;;5082341;28;20487;-66
2023/03/05 02:34:11;;;;;;;3.40;1.80;;;2.90;99.90;;;;;;5085912;28;20465;-68
2023/03/05 02:36:41;;;;;;;1.80;1.40;;;2.90;99.90;;;;;;5083690;28;20504;-68
2023/03/05 02:39:09;;;;;;;2.70;1.30;;;2.90;99.90;;;;;;5081839;28;20479;-66
2023/03/05 02:41:37;;;;;;;2.70;1.60;;;2.90;99.90;;;;;;5078145;28;20492;-66
2023/03/05 02:44:05;;;;;;;1.77;1.20;;;2.90;99.90;;;;;;5081835;28;20491;-66
2023/03/05 02:46:33;;;;;;;2.77;1.70;;;2.90;99.90;;;;;;5080961;28;20922;-66
2023/03/05 02:49:01;;;;;;;3.50;1.80;;;2.90;99.90;;;;;;5081698;28;20465;-66
2023/03/05 02:51:29;;;;;;;3.00;1.47;;;2.90;99.90;;;;;;5083792;28;20499;-67
2023/03/05 02:53:58;;;;;;;2.53;1.47;;;2.90;99.90;;;;;;5083435;28;20460;-67
2023/03/05 02:56:26;;;;;;;2.87;1.47;;;2.90;99.90;;;;;;5081096;28;20473;-66
2023/03/05 02:58:54;;;;;;;3.07;1.90;;;2.90;99.90;;;;;;5082706;28;21381;-67
2023/03/05 03:01:22;;;;;;;3.07;1.60;;;2.90;99.90;;;;;;5084733;28;20499;-67
2023/03/05 03:03:50;;;;;;;2.37;1.50;;;2.90;99.90;;;;;;5081490;28;21010;-66
2023/03/05 03:06:18;;;;;;;2.00;1.80;;;2.80;99.90;;;;;;5078572;28;20468;-66
2023/03/05 03:08:46;;;;;;;4.50;1.90;;;2.80;99.90;;;;;;5084554;28;20463;-66
2023/03/05 03:11:16;;;;;;;5.07;2.70;;;2.80;99.90;;;;;;5078664;27;20494;-67
2023/03/05 03:13:44;;;;;;;2.90;2.10;;;2.80;99.90;;;;;;5076450;28;20838;-66
2023/03/05 03:16:14;;;;;;;3.93;1.87;;;2.80;99.90;;;;;;5079092;27;20471;-66
2023/03/05 03:18:42;;;;;;;6.10;2.03;;;2.80;99.90;;;;;;5081019;28;23467;-66
2023/03/05 03:21:17;;;;;;;5.10;1.73;;;2.80;99.90;;;;;;5079188;28;20492;-67
2023/03/05 03:23:45;;;;;;;2.43;1.33;;;2.80;99.90;;;;;;5080186;27;20486;-67
2023/03/05 03:26:14;;;;;;;3.80;1.90;;;2.70;99.90;;;;;;5075184;28;20467;-65
2023/03/05 03:28:42;;;;;;;3.60;1.50;;;2.70;99.90;;;;;;5085731;28;20468;-67
2023/03/05 03:31:10;;;;;;;2.63;1.63;;;2.80;99.90;;;;;;5072020;28;20489;-66
2023/03/05 03:33:38;;;;;;;8.97;1.90;;;2.80;99.90;;;;;;5082533;28;20470;-67
2023/03/05 03:36:07;;;;;;;4.57;1.80;;;2.80;99.90;;;;;;5084223;28;20469;-67
2023/03/05 03:38:35;;;;;;;5.20;2.03;;;2.80;99.90;;;;;;5082471;28;20483;-67
2023/03/05 03:41:06;;;;;;;3.80;2.00;;;2.80;99.90;;;;;;5083094;28;20480;-67
2023/03/05 03:43:36;;;;;;;3.53;2.13;;;2.70;99.90;;;;;;5080864;28;20533;-67
2023/03/05 03:46:05;;;;;;;3.27;2.30;;;2.70;99.90;;;;;;5089190;28;20958;-67
2023/03/05 03:48:34;;;;;;;4.20;1.90;;;2.70;99.90;;;;;;5083300;28;20946;-67
2023/03/05 03:51:05;;;;;;;6.10;2.50;;;2.70;99.90;;;;;;5084608;28;20492;-66
2023/03/05 03:53:33;;;;;;;5.43;2.63;;;2.60;99.90;;;;;;5080678;28;21306;-66
2023/03/05 03:56:01;;;;;;;4.27;2.43;;;2.60;99.90;;;;;;5075844;28;20476;-67
2023/03/05 03:58:29;;;;;;;3.97;2.40;;;2.60;99.90;;;;;;5080525;28;20486;-66
2023/03/05 04:00:58;;;;;;;3.93;2.30;;;2.60;99.90;;;;;;5076213;28;21011;-66
2023/03/05 04:03:26;;;;;;;7.10;4.80;;;2.50;99.90;;;;;;5083389;27;21049;-67
2023/03/05 04:05:54;;;;;;;4.97;2.20;;;2.50;99.90;;;;;;5082874;28;20817;-66
2023/03/05 04:08:22;;;;;;;4.60;2.47;;;2.50;99.90;;;;;;5080635;28;20492;-66
2023/03/05 04:10:50;;;;;;;4.63;3.27;;;2.50;99.90;;;;;;5076096;27;20888;-66
2023/03/05 04:13:18;;;;;;;3.70;3.10;;;2.50;99.90;;;;;;5082462;28;20463;-66
2023/03/05 04:15:46;;;;;;;3.53;3.20;;;2.50;99.90;;;;;;5074462;28;20486;-67
2023/03/05 04:18:15;;;;;;;5.53;3.50;;;2.50;99.90;;;;;;5072859;28;21084;-67
2023/03/05 04:20:43;;;;;;;5.77;3.60;;;2.50;99.90;;;;;;5077073;28;20557;-67
2023/03/05 04:23:11;;;;;;;5.90;4.13;;;2.50;99.90;;;;;;5074848;28;20573;-67
2023/03/05 04:25:39;;;;;;;7.50;3.90;;;2.50;99.90;;;;;;5074073;28;20498;-67
2023/03/05 04:28:07;;;;;;;4.90;4.13;;;2.50;99.90;;;;;;5068085;28;20475;-66
2023/03/05 04:30:35;;;;;;;5.13;4.43;;;2.50;99.90;;;;;;5069259;28;21693;-66
2023/03/05 04:33:04;;;;;;;4.60;4.10;;;2.50;99.90;;;;;;5071516;28;20481;-66
2023/03/05 04:35:33;;;;;;;6.00;4.90;;;2.50;99.90;;;;;;5075468;28;20494;-67
2023/03/05 04:38:01;;;;;;;5.00;4.40;;;2.50;99.90;;;;;;5077444;28;20486;-66
2023/03/05 04:40:29;;;;;;;5.63;4.83;;;2.50;99.90;;;;;;5078056;28;20494;-66
2023/03/05 04:42:57;;;;;;;4.97;4.23;;;2.50;99.90;;;;;;5078035;28;20491;-66
2023/03/05 04:45:25;;;;;;;4.30;3.80;;;2.50;99.90;;;;;;5082504;28;20478;-66
2023/03/05 04:47:53;;;;;;;5.77;4.30;;;2.50;99.90;;;;;;5089429;28;20851;-67
2023/03/05 04:50:21;;;;;;;6.00;4.00;;;2.50;99.90;;;;;;5087927;28;21002;-67
2023/03/05 04:52:50;;;;;;;6.10;4.30;;;2.50;99.90;;;;;;5087179;28;20958;-66
2023/03/05 04:55:19;;;;;;;5.37;3.10;;;2.50;99.90;;;;;;5087330;28;20517;-66
2023/03/05 04:57:47;;;;;;;4.93;2.90;;;2.50;99.90;;;;;;5084832;28;20519;-66
2023/03/05 05:00:16;;;;;;;5.10;2.70;;;2.50;99.90;;;;;;5082207;28;20487;-65
2023/03/05 05:02:46;;;;;;;3.23;2.27;;;2.50;99.90;;;;;;5084177;28;20471;-67
2023/03/05 05:05:17;;;;;;;5.60;2.50;;;2.50;99.90;;;;;;5086115;28;21744;-66
2023/03/05 05:07:45;;;;;;;3.40;2.20;;;2.50;99.90;;;;;;5088006;28;20507;-66
2023/03/05 05:10:16;;;;;;;2.73;1.93;;;2.50;99.90;;;;;;5091636;28;20467;-66
2023/03/05 05:12:43;;;;;;;3.90;2.87;;;2.50;99.90;;;;;;5083275;27;20468;-66
2023/03/05 05:15:12;;;;;;;6.43;2.33;;;2.50;99.90;;;;;;5081755;27;20468;-65
2023/03/05 05:17:40;;;;;;;3.27;1.83;;;2.50;99.90;;;;;;5085784;28;21059;-66
2023/03/05 05:20:11;;;;;;;3.30;2.10;;;2.50;99.90;;;;;;5086775;28;20517;-66
2023/03/05 05:22:40;;;;;;;3.13;2.00;;;2.50;99.90;;;;;;5088190;28;20468;-68
2023/03/05 05:25:09;;;;;;;2.00;1.50;;;2.50;99.90;;;;;;5087280;28;21434;-66
2023/03/05 05:27:39;;;;;;;4.57;1.90;;;2.50;99.90;;;;;;5076859;28;20489;-65
2023/03/05 05:30:08;;;;;;;3.40;1.90;;;2.50;99.90;;;;;;5086796;28;20865;-66
2023/03/05 05:32:36;;;;;;;3.83;1.73;;;2.50;99.90;;;;;;5088969;28;21251;-65
2023/03/05 05:35:05;;;;;;;4.73;1.77;;;2.50;99.90;;;;;;5089635;27;20495;-67
2023/03/05 05:37:33;;;;;;;3.40;1.80;;;2.50;99.90;;;;;;5085843;28;20480;-66
2023/03/05 05:40:01;;;;;;;6.47;2.07;;;2.50;99.90;;;;;;5089377;28;21218;-67
2023/03/05 05:42:29;;;;;;;2.70;2.00;;;2.50;99.90;;;;;;5082224;28;20487;-67
2023/03/05 05:44:58;;;;;;;2.73;1.97;;;2.50;99.90;;;;;;5087096;28;20495;-65
2023/03/05 05:47:26;;;;;;;3.90;2.03;;;2.50;99.90;;;;;;5085501;28;20488;-67
2023/03/05 05:49:54;;;;;;;5.03;2.40;;;2.50;99.90;;;;;;5079858;27;20483;-67
2023/03/05 05:52:22;;;;;;;2.73;1.37;;;2.50;99.90;;;;;;5083914;28;20515;-66
2023/03/05 05:54:50;;;;;;;3.50;1.57;;;2.60;99.90;;;;;;5083713;28;22373;-67
2023/03/05 05:57:18;;;;;;;4.13;1.77;;;2.50;99.90;;;;;;5076358;28;20495;-66
2023/03/05 05:59:46;;;;;;;3.10;1.53;;;2.50;99.90;;;;;;5084505;28;20874;-66
2023/03/05 06:02:15;;;;;;;2.53;1.10;;;2.50;99.90;;;;;;5082569;28;21128;-67
2023/03/05 06:04:43;;;;;;;2.77;1.80;;;2.50;99.90;;;;;;5079355;27;21546;-67
2023/03/05 06:07:11;;;;;;;2.70;1.37;;;2.50;99.90;;;;;;5077389;27;20500;-67
2023/03/05 06:09:39;;;;;;;2.00;1.50;;;2.50;99.90;;;;;;5080946;28;20492;-66
2023/03/05 06:12:08;;;;;;;4.27;1.30;;;2.50;99.90;;;;;;5075644;28;20584;-66
2023/03/05 06:14:36;;;;;;;2.77;1.10;;;2.50;99.90;;;;;;5070566;28;21088;-66
2023/03/05 06:17:04;;;;;;;3.00;1.00;;;2.50;99.90;;;;;;5080924;28;21021;-67
2023/03/05 06:19:33;;;;;;;4.27;1.10;;;2.50;99.90;;;;;;5079551;28;20482;-67
2023/03/05 06:22:01;;;;;;;4.20;1.10;;;2.50;99.90;;;;;;5080857;28;20487;-67
2023/03/05 06:24:29;;;;;;;6.30;1.87;;;2.60;99.90;;;;;;5077858;28;20620;-67
2023/03/05 06:26:57;;;;;;;2.23;1.07;;;2.60;99.90;;;;;;5082468;28;20483;-67
2023/03/05 06:29:25;;;;;;;1.20;0.90;;;2.60;99.90;;;;;;5077045;27;20570;-66
2023/03/05 06:31:52;;;;;;;5.53;1.53;;;2.60;99.90;;;;;;5081027;27;20498;-67
2023/03/05 06:34:20;;;;;;;1.13;1.00;;;2.60;99.90;;;;;;5082488;28;20466;-66
2023/03/05 06:36:50;;;;;;;1.90;1.10;;;2.60;99.90;;;;;;5073158;27;20498;-66
2023/03/05 06:39:18;;;;;;;3.10;0.87;;;2.70;99.90;;;;;;5076061;28;20470;-67
2023/03/05 06:41:46;;;;;;;2.70;0.73;;;2.70;99.90;;;;;;5073706;28;20834;-66
2023/03/05 06:44:14;;;;;;;1.90;0.97;;;2.70;99.90;;;;;;5075246;28;20492;-66
2023/03/05 06:46:42;;;;;;;2.57;1.00;;;2.60;99.90;;;;;;5072206;28;20492;-66
2023/03/05 06:49:10;;;;;;;2.73;0.83;;;2.70;99.90;;;;;;5079073;28;20613;-67
2023/03/05 06:51:39;;;;;;;1.33;0.80;;;2.70;99.90;;;;;;5066660;28;20507;-67
2023/03/05 06:54:11;;;;;;;1.37;0.70;;;2.60;99.90;;;;;;5070623;28;20476;-66
2023/03/05 06:56:41;;;;;;;1.37;0.70;;;2.70;99.90;;;;;;5067628;27;20479;-66
2023/03/05 06:59:11;;;;;;;1.70;0.70;;;2.70;99.90;;;;;;5069551;28;20475;-66
2023/03/05 07:01:39;;;;;;;1.77;0.97;;;2.70;99.90;;;;;;5072783;28;21157;-66
2023/03/05 07:04:07;;;;;;;1.13;0.87;;;2.70;99.90;;;;;;5070141;27;20472;-65
2023/03/05 07:06:37;;;;;;;1.73;0.90;;;2.70;99.90;;;;;;5065935;28;20491;-66
2023/03/05 07:09:06;;;;;;;1.97;0.80;;;2.70;99.90;;;;;;5069526;28;20468;-66
2023/03/05 07:11:36;;;;;;;6.73;1.13;;;2.70;99.90;;;;;;5079171;28;20484;-66
2023/03/05 07:14:04;;;;;;;4.43;0.93;;;2.70;99.90;;;;;;5082418;28;20871;-66
2023/03/05 07:16:33;;;;;;;2.60;1.90;;;2.70;99.90;;;;;;5074185;28;20464;-65
2023/03/05 07:19:03;;;;;;;2.00;0.87;;;2.80;99.90;;;;;;5074623;28;20580;-65
2023/03/05 07:21:33;;;;;;;7.43;1.50;;;2.80;99.90;;;;;;5077780;28;20495;-66
2023/03/05 07:24:06;;;;;;;3.53;1.67;;;2.80;99.90;;;;;;5078607;28;20475;-65
2023/03/05 07:26:35;;;;;;;3.57;1.07;;;2.80;99.90;;;;;;5069447;28;20493;-65
2023/03/05 07:29:04;;;;;;;3.80;1.07;;;2.80;99.90;;;;;;5073580;28;21000;-70
2023/03/05 07:31:32;;;;;;;3.07;1.00;;;2.80;99.90;;;;;;5069996;28;20598;-66
2023/03/05 07:34:01;;;;;;;2.33;1.10;;;2.90;99.90;;;;;;5073271;28;21112;-67
2023/03/05 07:36:29;;;;;;;2.03;1.33;;;2.90;99.90;;;;;;5071404;27;20976;-67
2023/03/05 07:38:57;;;;;;;2.10;1.27;;;2.90;99.90;;;;;;5069035;28;20594;-67
2023/03/05 07:41:26;;;;;;;3.13;1.50;;;2.90;99.90;;;;;;5072727;27;20491;-67
2023/03/05 07:43:55;;;;;;;3.53;1.50;;;2.90;99.90;;;;;;5066979;27;20478;-66
2023/03/05 07:46:25;;;;;;;3.83;1.30;;;2.90;99.90;;;;;;5066617;27;20496;-66
2023/03/05 07:48:54;;;;;;;3.73;1.17;;;2.90;99.90;;;;;;5077149;28;20897;-66
2023/03/05 07:51:24;;;;;;;6.67;2.20;;;2.90;99.90;;;;;;5075398;28;20500;-65
2023/03/05 07:53:53;;;;;;;3.50;1.50;;;2.90;99.90;;;;;;5078746;28;20471;-66
2023/03/05 07:56:23;;;;;;;1.90;1.10;;;3.00;99.90;;;;;;5089283;27;20464;-65
2023/03/05 07:58:51;;;;;;;2.90;1.00;;;3.00;99.90;;;;;;5075583;28;20930;-67
2023/03/05 08:01:21;;;;;;;3.30;1.47;;;3.10;99.90;;;;;;5079659;27;20487;-67
2023/03/05 08:03:49;;;;;;;2.67;1.20;;;3.00;99.90;;;;;;5070637;28;20818;-66
2023/03/05 08:06:17;;;;;;;1.97;1.30;;;3.00;99.90;;;;;;5071560;28;20487;-66
2023/03/05 08:08:45;;;;;;;2.10;1.13;;;3.00;99.90;;;;;;5084452;28;20479;-68
2023/03/05 08:11:14;;;;;;;2.37;1.40;;;3.10;99.90;;;;;;5067847;28;20541;-66
2023/03/05 08:13:43;;;;;;;2.77;1.30;;;3.20;99.90;;;;;;5064253;27;20472;-67
2023/03/05 08:16:13;;;;;;;2.50;1.30;;;3.20;99.90;;;;;;5058615;27;20467;-67
2023/03/05 08:18:44;;;;;;;2.20;1.30;;;3.10;99.90;;;;;;5068605;28;20487;-69
2023/03/05 08:21:25;;;;;;;4.20;2.93;;;3.20;99.90;;;;;;5064139;27;20994;-68
2023/03/05 08:23:53;;;;;;;1.80;1.23;;;3.20;99.90;;;;;;5068350;28;20473;-67
2023/03/05 08:26:23;;;;;;;4.53;2.00;;;3.30;99.90;;;;;;5075135;27;20487;-68
2023/03/05 08:28:51;;;;;;;3.70;1.70;;;3.40;99.90;;;;;;5076351;28;20464;-69
2023/03/05 08:31:22;;;;;;;3.60;1.80;;;3.40;99.90;;;;;;5071560;28;20527;-69
2023/03/05 08:33:54;;;;;;;1.70;1.20;;;3.40;99.90;;;;;;5075279;28;20467;-68
2023/03/05 08:36:22;;;;;;;7.67;1.83;;;3.40;99.90;;;;;;5079895;28;20472;-69
2023/03/05 08:38:50;;;;;;;1.40;1.30;;;3.50;99.90;;;;;;5069472;28;20483;-68
2023/03/05 08:41:19;;;;;;;3.20;1.90;;;3.50;99.90;;;;;;5075375;28;20487;-66
2023/03/05 08:43:48;;;;;;;4.50;1.67;;;3.60;99.90;;;;;;5058722;28;20991;-66
2023/03/05 08:46:16;;;;;;;4.30;1.60;;;3.60;99.90;;;;;;5066129;28;20983;-66
2023/03/05 08:48:44;;;;;;;2.43;2.23;;;3.70;99.90;;;;;;5073635;28;20471;-68
2023/03/05 08:51:16;;;;;;;4.77;1.60;;;3.70;99.90;;;;;;5085973;28;20488;-68
2023/03/05 08:53:45;;;;;;;1.97;1.50;;;3.80;99.90;;;;;;5081493;28;20468;-69
2023/03/05 08:56:14;;;;;;;3.80;1.80;;;3.80;99.90;;;;;;5087665;28;20520;-67
2023/03/05 08:58:42;;;;;;;4.73;1.87;;;3.90;99.90;;;;;;5078549;28;20481;-67
2023/03/05 09:01:10;;;;;;;3.00;1.80;;;3.90;99.90;;;;;;5079386;28;20499;-67
2023/03/05 09:03:39;;;;;;;3.53;1.20;;;3.90;99.90;;;;;;5080491;28;20561;-68
2023/03/05 09:06:09;;;;;;;2.30;1.60;;;4.00;99.90;;;;;;5092026;28;20487;-67
2023/03/05 09:08:39;;;;;;;2.73;1.83;;;4.10;99.90;;;;;;5070002;28;20498;-68
2023/03/05 09:11:10;;;;;;;3.13;1.87;;;4.20;99.90;;;;;;5083751;28;20864;-67
2023/03/05 09:13:38;;;;;;;3.13;1.70;;;4.20;99.90;;;;;;5087201;28;21078;-67
2023/03/05 09:16:07;;;;;;;4.57;1.90;;;4.30;99.90;;;;;;5084652;28;20472;-68
2023/03/05 09:18:36;;;;;;;2.30;1.40;;;4.40;99.90;;;;;;5073356;28;20941;-70
2023/03/05 09:21:08;;;;;;;2.83;1.60;;;4.40;99.90;;;;;;5082743;28;20496;-69
2023/03/05 09:23:36;;;;;;;2.77;1.97;;;4.50;99.90;;;;;;5080295;28;20532;-69
2023/03/05 09:26:07;;;;;;;1.83;1.57;;;4.50;99.90;;;;;;5080934;28;20483;-68
2023/03/05 09:28:35;;;;;;;3.93;1.60;;;4.60;99.90;;;;;;5082377;28;20502;-68
2023/03/05 09:31:04;;;;;;;2.20;1.60;;;4.60;99.90;;;;;;5082771;28;21060;-68
2023/03/05 09:33:32;;;;;;;5.40;2.60;;;4.80;99.90;;;;;;5078629;28;22326;-68
2023/03/05 09:36:00;;;;;;;3.10;2.50;;;4.90;99.90;;;;;;5078963;27;20459;-67
2023/03/05 09:38:29;;;;;;;3.27;2.40;;;4.90;99.90;;;;;;5095210;28;20977;-68
2023/03/05 09:41:02;;;;;;;4.20;2.30;;;4.90;99.90;;;;;;5075403;27;20819;-68
2023/03/05 09:43:41;;;;;;;3.10;2.30;;;4.70;99.90;;;;;;5090106;27;21009;-68
2023/03/05 09:46:31;;;;;;;5.90;2.53;;;4.70;99.90;;;;;;5090238;28;20480;-68
2023/03/05 09:49:07;;;;;;;4.07;1.97;;;4.70;99.90;;;;;;5088632;27;20506;-68
2023/03/05 09:51:39;;;;;;;3.23;2.00;;;4.60;99.90;;;;;;5092214;27;20556;-68
2023/03/05 09:54:12;;;;;;;3.20;2.23;;;4.60;99.90;;;;;;5091646;28;20598;-68
2023/03/05 09:56:44;;;;;;;5.43;2.60;;;4.60;99.90;;;;;;5085413;28;20489;-68
2023/03/05 09:59:23;;;;;;;4.10;2.50;;;4.50;99.90;;;;;;5090102;28;20464;-68
2023/03/05 10:01:52;;;;;;;2.43;1.90;;;4.50;99.90;;;;;;5087693;28;20498;-68
2023/03/05 10:04:25;;;;;;;2.30;1.77;;;4.40;99.90;;;;;;5087658;28;20925;-68
2023/03/05 10:06:59;;;;;;;3.50;2.10;;;4.30;99.90;;;;;;5084939;28;20594;-68
2023/03/05 10:09:41;;;;;;;3.13;1.57;;;4.20;99.90;;;;;;5087839;28;20472;-68
2023/03/05 10:12:16;;;;;;;2.43;1.90;;;4.20;99.90;;;;;;5084622;27;20495;-68
2023/03/05 10:14:45;;;;;;;4.43;1.90;;;4.20;99.90;;;;;;5093845;27;20859;-67
2023/03/05 10:17:44;;;;;;;2.90;1.70;;;4.20;99.90;;;;;;5090773;28;20488;-67
2023/03/05 10:20:47;;;;;;;2.93;1.73;;;4.20;99.90;;;;;;5085758;28;20506;-67
2023/03/05 10:23:50;;;;;;;3.40;1.93;;;4.10;99.90;;;;;;5086065;27;20473;-67
2023/03/05 10:26:31;;;;;;;3.13;1.43;;;4.10;99.90;;;;;;5087020;28;21112;-66
2023/03/05 10:29:13;;;;;;;3.43;1.40;;;4.10;99.90;;;;;;5089872;28;20491;-68
2023/03/05 10:31:53;;;;;;;3.40;1.83;;;4.10;99.90;;;;;;5082498;27;21018;-67
2023/03/05 10:34:41;;;;;;;2.90;1.70;;;4.20;99.90;;;;;;5085213;27;20464;-68
2023/03/05 10:37:28;;;;;;;2.37;1.73;;;4.20;99.90;;;;;;5089308;28;21101;-68
2023/03/05 10:40:06;;;;;;;1.90;1.67;;;4.30;99.90;;;;;;5077271;28;20925;-67
2023/03/05 10:42:41;;;;;;;3.63;1.70;;;4.30;99.90;;;;;;5083882;28;20478;-68
2023/03/05 10:45:15;;;;;;;4.13;1.80;;;4.40;99.90;;;;;;5082554;28;20467;-68
2023/03/05 10:47:49;;;;;;;1.57;1.47;;;4.50;99.90;;;;;;5086815;28;21127;-67
2023/03/05 10:50:22;;;;;;;1.73;1.50;;;4.70;99.90;;;;;;5081948;28;20977;-67
2023/03/05 10:52:57;;;;;;;2.33;1.40;;;4.90;99.90;;;;;;5079458;28;20473;-68
2023/03/05 10:55:25;;;;;;;2.70;1.73;;;5.20;99.90;;;;;;5083959;28;20478;-68
2023/03/05 10:57:53;;;;;;;2.73;1.20;;;5.30;99.90;;;;;;5086518;28;20487;-68
2023/03/05 11:00:24;;;;;;;6.37;2.40;;;5.50;99.90;;;;;;5081678;27;20487;-67
2023/03/05 11:02:59;;;;;;;3.90;1.77;;;5.60;99.90;;;;;;5074632;27;20494;-67
2023/03/05 11:05:42;;;;;;;4.53;1.70;;;5.70;99.90;;;;;;5073101;28;20467;-66
2023/03/05 11:08:31;;;;;;;3.23;1.50;;;5.90;99.90;;;;;;5076660;28;20574;-67
2023/03/05 11:11:21;;;;;;;1.80;1.30;;;6.20;99.90;;;;;;5082017;28;20500;-66
2023/03/05 11:13:55;;;;;;;2.00;1.10;;;6.30;99.90;;;;;;5065521;27;20480;-67
2023/03/05 11:16:25;;;;;;;2.20;1.40;;;6.30;99.90;;;;;;5079778;28;20472;-67
2023/03/05 11:19:18;;;;;;;3.10;1.30;;;6.30;99.90;;;;;;5079769;28;20542;-67
2023/03/05 11:21:47;;;;;;;1.97;0.90;;;6.10;99.90;;;;;;5072686;28;20544;-67
2023/03/05 11:24:17;;;;;;;2.67;1.13;;;6.00;99.90;;;;;;5078132;27;20476;-67
2023/03/05 11:26:48;;;;;;;1.30;1.20;;;5.90;99.90;;;;;;5077465;27;20483;-67
2023/03/05 11:29:22;;;;;;;1.90;1.47;;;5.90;99.90;;;;;;5075350;28;20474;-68
2023/03/05 11:31:51;;;;;;;2.83;1.90;;;6.00;99.90;;;;;;5082872;27;20490;-67
2023/03/05 11:34:30;;;;;;;3.03;1.80;;;6.10;99.90;;;;;;5077852;27;20476;-67
2023/03/05 11:37:06;;;;;;;2.83;1.83;;;6.30;99.90;;;;;;5077285;27;20933;-67
2023/03/05 11:39:39;;;;;;;2.00;1.90;;;6.40;99.90;;;;;;5081631;28;20494;-67
2023/03/05 11:42:13;;;;;;;2.37;2.17;;;6.40;99.90;;;;;;5090806;28;21156;-67
2023/03/05 11:44:47;;;;;;;2.93;2.70;;;6.40;99.90;;;;;;5078470;28;20527;-67
2023/03/05 11:47:26;;;;;;;2.30;2.20;;;6.30;99.90;;;;;;5080682;27;21237;-70
2023/03/05 11:50:02;;;;;;;2.30;2.20;;;6.30;99.90;;;;;;5090562;27;20472;-70
2023/03/05 11:52:33;;;;;;;2.10;2.00;;;6.20;99.90;;;;;;5088090;28;20502;-70
2023/03/05 11:55:05;;;;;;;1.70;1.60;;;6.20;99.90;;;;;;5081084;27;20499;-70
2023/03/05 11:57:43;;;;;;;2.30;2.20;;;6.30;99.90;;;;;;5086322;28;20482;-68
2023/03/05 12:00:15;;;;;;;2.40;2.00;;;6.40;99.90;;;;;;5086954;28;20486;-69
2023/03/05 12:02:45;;;;;;;3.37;1.93;;;6.60;99.90;;;;;;5090354;27;20466;-69
2023/03/05 12:05:16;;;;;;;5.57;2.60;;;6.80;99.90;;;;;;5095272;28;20468;-69
2023/03/05 12:07:49;;;;;;;2.70;2.50;;;7.00;99.90;;;;;;5093261;28;20587;-67
2023/03/05 12:10:20;;;;;;;3.50;2.00;;;7.20;99.90;;;;;;5086741;28;20475;-68
2023/03/05 12:12:52;;;;;;;2.73;2.47;;;7.40;99.90;;;;;;5080870;27;20472;-68
2023/03/05 12:15:35;;;;;;;2.90;2.40;;;7.40;99.90;;;;;;5091507;28;20464;-68
2023/03/05 12:18:18;;;;;;;2.47;2.10;;;7.30;99.90;;;;;;5088562;27;20476;-69
2023/03/05 12:20:56;;;;;;;3.40;2.20;;;7.20;99.90;;;;;;5089093;28;20484;-68
2023/03/05 12:23:25;;;;;;;2.13;1.93;;;7.20;99.90;;;;;;5082657;28;20471;-68
2023/03/05 12:25:56;;;;;;;2.17;1.60;;;7.50;99.90;;;;;;5090751;28;20966;-68
2023/03/05 12:28:57;;;;;;;2.73;1.10;;;7.70;99.90;;;;;;5083756;28;20485;-68
2023/03/05 12:31:36;;;;;;;3.27;0.90;;;7.90;99.90;;;;;;5082087;28;20502;-67
2023/03/05 12:34:36;;;;;;;3.90;1.00;;;7.80;99.90;;;;;;5093424;28;20472;-69
2023/03/05 12:37:10;;;;;;;2.20;0.97;;;7.50;99.90;;;;;;5084736;28;20476;-69
2023/03/05 12:40:03;;;;;;;2.47;1.00;;;7.40;99.90;;;;;;5093785;28;20474;-69
2023/03/05 12:42:57;;;;;;;4.80;1.00;;;7.40;99.90;;;;;;5087276;28;20506;-69
2023/03/05 12:45:34;;;;;;;2.10;1.00;;;7.60;99.90;;;;;;5094192;28;20471;-69
2023/03/05 12:48:39;;;;;;;1.93;0.60;;;8.00;99.90;;;;;;5089130;28;20487;-69
2023/03/05 12:51:13;;;;;;;2.00;0.60;;;7.90;96.00;;;;;;5097291;28;20512;-68
2023/03/05 12:53:42;;;;;;;1.37;0.80;;;7.50;99.90;;;;;;5086848;28;20472;-69
2023/03/05 12:56:23;;;;;;;1.50;0.60;;;7.20;99.90;;;;;;5074995;28;20473;-69
2023/03/05 12:58:53;;;;;;;1.90;1.13;;;7.00;99.90;;;;;;5067055;28;20495;-69
2023/03/05 13:01:34;;;;;;;1.33;0.80;;;6.90;99.90;;;;;;5082958;28;20543;-70
2023/03/05 13:04:09;;;;;;;0.60;0.60;;;6.70;99.90;;;;;;5077115;28;20486;-71
2023/03/05 13:06:39;;;;;;;2.50;0.97;;;6.50;99.90;;;;;;5084937;28;20542;-70
2023/03/05 13:09:17;;;;;;;1.93;1.00;;;6.50;99.90;;;;;;5092760;27;20487;-69
2023/03/05 13:11:48;;;;;;;3.13;1.00;;;6.40;99.90;;;;;;5091392;27;20612;-70
2023/03/05 13:14:36;;;;;;;2.40;1.00;;;6.40;99.90;;;;;;5072428;27;20467;-69
2023/03/05 13:17:27;;;;;;;1.30;0.90;;;6.30;99.90;;;;;;5074620;28;20495;-69
2023/03/05 13:19:56;;;;;;;1.97;1.00;;;6.30;99.90;;;;;;5081863;27;20813;-70